createdAt,value
2019-01-25T00:00:23.582Z,35.37
2019-01-25T00:02:51.984Z,35.33
2019-01-25T00:05:20.410Z,35.07
2019-01-25T00:07:48.796Z,31.83
2019-01-25T00:10:17.188Z,33.00
2019-01-25T00:12:45.574Z,31.30
2019-01-25T00:15:14.008Z,31.03
2019-01-25T00:17:42.502Z,34.03
2019-01-25T00:20:12.531Z,31.37
2019-01-25T00:22:40.966Z,29.13
2019-01-25T00:25:09.510Z,31.07
2019-01-25T00:27:37.888Z,30.73
2019-01-25T00:30:14.392Z,27.70
2019-01-25T00:32:42.782Z,26.17
2019-01-25T00:35:11.182Z,33.63
2019-01-25T00:37:39.617Z,31.17
2019-01-25T00:40:11.294Z,33.17
2019-01-25T00:42:39.716Z,28.77
2019-01-25T00:45:10.678Z,30.77
2019-01-25T00:47:38.988Z,30.70
2019-01-25T00:50:16.288Z,27.27
2019-01-25T00:52:44.666Z,28.03
2019-01-25T00:55:13.046Z,29.63
2019-01-25T00:57:41.559Z,33.57
2019-01-25T01:00:15.805Z,27.37
2019-01-25T01:02:44.188Z,28.83
2019-01-25T01:05:14.236Z,24.07
2019-01-25T01:07:42.624Z,31.27
2019-01-25T01:10:14.166Z,27.53
2019-01-25T01:12:41.619Z,25.03
2019-01-25T01:15:12.716Z,33.30
2019-01-25T01:17:41.176Z,29.20
2019-01-25T01:20:12.321Z,27.37
2019-01-25T01:22:40.697Z,26.13
2019-01-25T01:25:10.121Z,29.53
2019-01-25T01:27:38.527Z,26.77
2019-01-25T01:30:15.871Z,29.20
2019-01-25T01:32:44.296Z,27.37
2019-01-25T01:35:12.780Z,26.20
2019-01-25T01:37:41.158Z,24.97
2019-01-25T01:40:21.820Z,26.73
2019-01-25T01:42:45.650Z,23.53
2019-01-25T01:45:14.182Z,29.57
2019-01-25T01:47:42.605Z,22.27
2019-01-25T01:50:13.317Z,25.97
2019-01-25T01:52:41.684Z,23.37
2019-01-25T01:55:11.064Z,24.37
2019-01-25T01:57:39.438Z,23.77
2019-01-25T02:00:11.110Z,27.43
2019-01-25T02:02:39.509Z,23.10
2019-01-25T02:05:08.676Z,21.63
2019-01-25T02:07:37.683Z,24.53
2019-01-25T02:10:11.923Z,23.27
2019-01-25T02:12:40.372Z,25.60
2019-01-25T02:15:11.393Z,24.30
2019-01-25T02:17:39.828Z,25.67
2019-01-25T02:20:14.482Z,24.57
2019-01-25T02:22:42.845Z,24.77
2019-01-25T02:25:11.229Z,25.67
2019-01-25T02:27:39.646Z,25.50
2019-01-25T02:30:11.332Z,20.67
2019-01-25T02:32:39.713Z,21.40
2019-01-25T02:35:09.044Z,22.30
2019-01-25T02:37:37.443Z,23.20
2019-01-25T02:40:11.031Z,23.87
2019-01-25T02:42:39.431Z,20.97
2019-01-25T02:45:10.445Z,21.77
2019-01-25T02:47:38.825Z,23.63
2019-01-25T02:50:12.534Z,23.10
2019-01-25T02:52:40.919Z,22.00
2019-01-25T02:55:10.658Z,24.17
2019-01-25T02:57:39.025Z,20.03
2019-01-25T03:00:18.774Z,18.93
2019-01-25T03:02:47.163Z,19.30
2019-01-25T03:05:17.072Z,22.73
2019-01-25T03:07:45.486Z,19.03
2019-01-25T03:10:15.795Z,18.97
2019-01-25T03:12:44.248Z,21.53
2019-01-25T03:15:15.184Z,20.20
2019-01-25T03:17:43.558Z,19.77
2019-01-25T03:20:14.819Z,17.87
2019-01-25T03:22:44.627Z,21.53
2019-01-25T03:25:16.223Z,19.43
2019-01-25T03:27:44.656Z,18.37
2019-01-25T03:30:16.066Z,20.80
2019-01-25T03:32:44.511Z,17.33
2019-01-25T03:35:14.175Z,22.37
2019-01-25T03:37:42.619Z,16.67
2019-01-25T03:40:19.755Z,16.93
2019-01-25T03:42:48.116Z,16.70
2019-01-25T03:45:16.646Z,17.67
2019-01-25T03:47:45.048Z,15.67
2019-01-25T03:50:19.471Z,18.67
2019-01-25T03:52:47.863Z,18.17
2019-01-25T03:55:16.267Z,19.63
2019-01-25T03:57:44.657Z,18.27
2019-01-25T04:00:16.137Z,16.93
2019-01-25T04:02:44.537Z,18.47
2019-01-25T04:05:15.142Z,18.27
2019-01-25T04:07:43.653Z,18.60
2019-01-25T04:10:18.065Z,15.07
2019-01-25T04:12:46.435Z,14.17
2019-01-25T04:15:20.222Z,15.97
2019-01-25T04:17:48.650Z,16.70
2019-01-25T04:20:19.077Z,17.00
2019-01-25T04:22:49.094Z,16.43
2019-01-25T04:25:22.846Z,17.63
2019-01-25T04:27:51.650Z,17.23
2019-01-25T04:30:22.662Z,16.70
2019-01-25T04:32:52.682Z,16.10
2019-01-25T04:35:21.087Z,16.83
2019-01-25T04:37:49.473Z,16.87
2019-01-25T04:40:18.686Z,16.03
2019-01-25T04:42:47.173Z,18.30
2019-01-25T04:45:18.848Z,17.70
2019-01-25T04:47:47.221Z,18.30
2019-01-25T04:50:23.986Z,18.33
2019-01-25T04:52:55.216Z,16.70
2019-01-25T04:55:32.902Z,14.17
2019-01-25T04:58:12.351Z,16.20
2019-01-25T05:00:41.144Z,17.17
2019-01-25T05:03:10.851Z,16.93
2019-01-25T05:05:42.383Z,18.00
2019-01-25T05:08:18.882Z,15.90
2019-01-25T05:10:48.983Z,17.87
2019-01-25T05:13:17.481Z,16.20
2019-01-25T05:15:45.890Z,16.90
2019-01-25T05:18:15.280Z,15.83
2019-01-25T05:20:44.137Z,14.23
2019-01-25T05:23:12.511Z,14.87
2019-01-25T05:25:40.888Z,15.67
2019-01-25T05:28:17.559Z,16.30
2019-01-25T05:30:54.811Z,16.87
2019-01-25T05:33:23.635Z,18.50
2019-01-25T05:35:51.984Z,16.50
2019-01-25T05:38:20.918Z,14.90
2019-01-25T05:40:49.308Z,20.00
2019-01-25T05:43:17.775Z,16.60
2019-01-25T05:45:46.425Z,18.07
2019-01-25T05:48:14.823Z,19.83
2019-01-25T05:50:45.607Z,19.43
2019-01-25T05:53:14.360Z,18.73
2019-01-25T05:55:42.731Z,17.47
2019-01-25T05:58:11.136Z,18.00
2019-01-25T06:00:41.269Z,17.80
2019-01-25T06:03:12.235Z,17.00
2019-01-25T06:05:40.597Z,18.60
2019-01-25T06:08:32.809Z,21.17
2019-01-25T06:11:06.485Z,19.40
2019-01-25T06:13:34.859Z,17.17
2019-01-25T06:16:03.253Z,16.20
2019-01-25T06:18:33.416Z,17.30
2019-01-25T06:21:01.801Z,19.73
2019-01-25T06:23:30.173Z,19.57
2019-01-25T06:25:59.571Z,17.40
2019-01-25T06:28:28.018Z,16.60
2019-01-25T06:30:56.392Z,18.63
2019-01-25T06:33:24.855Z,18.37
2019-01-25T06:35:53.340Z,18.47
2019-01-25T06:38:21.721Z,17.93
2019-01-25T06:40:50.152Z,18.37
2019-01-25T06:43:18.527Z,16.17
2019-01-25T06:45:46.899Z,15.03
2019-01-25T06:48:15.379Z,17.73
2019-01-25T06:50:43.739Z,17.63
2019-01-25T06:53:12.138Z,17.20
2019-01-25T06:55:40.534Z,18.57
2019-01-25T06:58:13.565Z,17.97
2019-01-25T07:00:58.923Z,19.83
2019-01-25T07:03:27.322Z,19.57
2019-01-25T07:05:55.713Z,17.17
2019-01-25T07:08:24.080Z,23.20
2019-01-25T07:10:52.508Z,24.97
2019-01-25T07:13:20.968Z,22.13
2019-01-25T07:15:49.360Z,19.83
2019-01-25T07:18:27.596Z,20.67
2019-01-25T07:20:55.679Z,18.53
2019-01-25T07:23:24.086Z,24.03
2019-01-25T07:25:52.555Z,18.20
2019-01-25T07:28:22.611Z,19.73
2019-01-25T07:30:51.687Z,19.00
2019-01-25T07:33:20.148Z,19.93
2019-01-25T07:35:48.786Z,25.67
2019-01-25T07:38:17.231Z,19.37
2019-01-25T07:40:45.623Z,20.67
2019-01-25T07:43:14.062Z,25.83
2019-01-25T07:45:42.465Z,21.23
2019-01-25T07:48:10.827Z,22.70
2019-01-25T07:50:39.232Z,23.90
2019-01-25T07:53:07.686Z,21.70
2019-01-25T07:55:36.022Z,22.20
2019-01-25T07:58:04.455Z,21.97
2019-01-25T08:00:32.861Z,23.33
2019-01-25T08:03:01.322Z,22.83
2019-01-25T08:05:29.695Z,24.57
2019-01-25T08:08:00.634Z,28.63
2019-01-25T08:10:29.054Z,25.83
2019-01-25T08:12:57.421Z,22.97
2019-01-25T08:15:26.994Z,21.43
2019-01-25T08:17:55.402Z,22.40
2019-01-25T08:20:23.906Z,25.33
2019-01-25T08:22:52.257Z,24.53
2019-01-25T08:25:20.686Z,23.53
2019-01-25T08:27:49.094Z,24.83
2019-01-25T08:30:22.101Z,22.03
2019-01-25T08:32:50.631Z,22.67
2019-01-25T08:35:19.244Z,19.97
2019-01-25T08:37:47.868Z,24.00
2019-01-25T08:40:17.278Z,20.40
2019-01-25T08:42:45.781Z,21.40
2019-01-25T08:45:16.599Z,20.47
2019-01-25T08:47:46.181Z,22.80
2019-01-25T08:50:20.435Z,18.53
2019-01-25T08:52:48.895Z,20.47
2019-01-25T08:55:17.375Z,23.87
2019-01-25T08:57:45.780Z,20.03
2019-01-25T09:00:25.925Z,22.40
2019-01-25T09:02:54.336Z,17.73
2019-01-25T09:05:22.768Z,21.77
2019-01-25T09:07:51.143Z,26.77
2019-01-25T09:10:21.366Z,20.80
2019-01-25T09:12:49.791Z,21.73
2019-01-25T09:15:25.195Z,17.43
2019-01-25T09:17:53.734Z,21.10
2019-01-25T09:20:22.406Z,17.63
2019-01-25T09:22:50.763Z,20.63
2019-01-25T09:25:19.180Z,19.60
2019-01-25T09:27:48.042Z,17.87
2019-01-25T09:30:27.162Z,21.37
2019-01-25T09:32:55.616Z,20.43
2019-01-25T09:35:24.003Z,18.93
2019-01-25T09:37:56.175Z,20.20
2019-01-25T09:40:26.206Z,21.50
2019-01-25T09:42:54.585Z,24.30
2019-01-25T09:45:23.054Z,21.60
2019-01-25T09:47:53.056Z,20.40
2019-01-25T09:50:22.615Z,21.27
2019-01-25T09:52:51.151Z,26.73
2019-01-25T09:55:24.307Z,19.60
2019-01-25T09:57:53.827Z,23.10
2019-01-25T10:00:25.620Z,21.67
2019-01-25T10:02:54.021Z,22.90
2019-01-25T10:05:23.867Z,23.10
2019-01-25T10:07:52.350Z,28.00
2019-01-25T10:10:21.318Z,30.77
2019-01-25T10:12:52.657Z,26.70
2019-01-25T10:15:27.122Z,25.53
2019-01-25T10:17:55.607Z,35.60
2019-01-25T10:20:24.207Z,25.03
2019-01-25T10:22:55.536Z,23.40
2019-01-25T10:25:24.053Z,27.77
2019-01-25T10:27:52.461Z,25.03
2019-01-25T10:30:24.151Z,23.10
2019-01-25T10:32:52.563Z,23.17
2019-01-25T10:35:22.591Z,28.13
2019-01-25T10:37:51.442Z,24.97
2019-01-25T10:40:23.515Z,23.30
2019-01-25T10:42:53.238Z,21.90
2019-01-25T10:45:28.273Z,29.93
2019-01-25T10:47:56.617Z,22.57
2019-01-25T10:50:25.023Z,30.47
2019-01-25T10:52:53.502Z,26.23
2019-01-25T10:55:22.443Z,27.57
2019-01-25T10:57:51.402Z,24.13
2019-01-25T11:00:23.750Z,27.23
2019-01-25T11:02:58.061Z,26.10
2019-01-25T11:05:24.855Z,25.53
2019-01-25T11:07:53.711Z,25.93
2019-01-25T11:10:22.163Z,26.63
2019-01-25T11:12:50.585Z,28.03
2019-01-25T11:15:23.782Z,29.50
2019-01-25T11:18:10.550Z,27.20
2019-01-25T11:20:38.963Z,31.33
2019-01-25T11:23:07.375Z,27.93
2019-01-25T11:25:38.599Z,24.63
2019-01-25T11:28:06.997Z,27.90
2019-01-25T11:30:35.761Z,28.00
2019-01-25T11:33:04.403Z,30.23
2019-01-25T11:35:37.867Z,31.33
2019-01-25T11:38:06.565Z,31.53
2019-01-25T11:40:41.837Z,28.90
2019-01-25T11:43:10.253Z,28.23
2019-01-25T11:45:38.628Z,32.40
2019-01-25T11:48:09.986Z,35.93
2019-01-25T11:50:38.377Z,28.70
2019-01-25T11:53:06.837Z,26.27
2019-01-25T11:55:35.265Z,28.80
2019-01-25T11:58:03.716Z,25.97
2019-01-25T12:00:33.216Z,29.33
2019-01-25T12:03:01.716Z,30.60
2019-01-25T12:05:30.171Z,27.77
2019-01-25T12:07:58.561Z,31.90
2019-01-25T12:10:32.114Z,33.37
2019-01-25T12:13:00.951Z,31.90
2019-01-25T12:15:30.430Z,31.73
2019-01-25T12:17:58.819Z,29.23
2019-01-25T12:20:31.871Z,33.80
2019-01-25T12:23:01.005Z,30.43
2019-01-25T12:25:29.436Z,36.27
2019-01-25T12:27:59.527Z,30.13
2019-01-25T12:30:30.595Z,32.60
2019-01-25T12:32:59.572Z,31.67
2019-01-25T12:35:33.505Z,35.50
2019-01-25T12:38:02.027Z,31.27
2019-01-25T12:40:32.902Z,30.83
2019-01-25T12:43:01.297Z,34.20
2019-01-25T12:45:30.895Z,33.43
2019-01-25T12:48:00.531Z,33.00
2019-01-25T12:50:37.992Z,33.77
2019-01-25T12:53:10.517Z,33.67
2019-01-25T12:55:38.898Z,30.97
2019-01-25T12:58:09.335Z,32.20
2019-01-25T13:00:38.032Z,33.90
2019-01-25T13:03:08.070Z,34.73
2019-01-25T13:05:36.523Z,33.73
2019-01-25T13:08:05.128Z,38.67
2019-01-25T13:10:33.543Z,35.30
2019-01-25T13:13:03.695Z,35.50
2019-01-25T13:15:32.075Z,33.33
2019-01-25T13:18:00.647Z,33.87
2019-01-25T13:20:30.564Z,33.83
2019-01-25T13:22:58.978Z,30.33
2019-01-25T13:25:30.651Z,29.83
2019-01-25T13:28:02.320Z,31.60
2019-01-25T13:30:33.288Z,30.33
2019-01-25T13:33:01.681Z,34.57
2019-01-25T13:35:31.552Z,31.77
2019-01-25T13:37:59.991Z,35.23
2019-01-25T13:40:30.900Z,30.87
2019-01-25T13:42:59.380Z,32.23
2019-01-25T13:45:27.753Z,30.63
2019-01-25T13:47:56.168Z,31.10
2019-01-25T13:50:26.777Z,35.37
2019-01-25T13:52:55.187Z,32.13
2019-01-25T13:55:23.559Z,35.93
2019-01-25T13:57:52.084Z,35.77
2019-01-25T14:00:31.498Z,35.10
2019-01-25T14:02:59.917Z,32.33
2019-01-25T14:05:28.308Z,35.63
2019-01-25T14:07:56.716Z,33.97
2019-01-25T14:10:27.718Z,35.23
2019-01-25T14:12:56.656Z,31.20
2019-01-25T14:15:25.039Z,39.07
2019-01-25T14:17:53.472Z,35.57
2019-01-25T14:20:32.688Z,35.60
2019-01-25T14:23:01.177Z,34.30
2019-01-25T14:25:29.580Z,36.27
2019-01-25T14:27:57.967Z,36.93
2019-01-25T14:30:32.021Z,37.27
2019-01-25T14:33:00.322Z,35.70
2019-01-25T14:35:33.660Z,31.87
2019-01-25T14:38:02.055Z,35.40
2019-01-25T14:40:30.445Z,33.43
2019-01-25T14:42:58.936Z,37.40
2019-01-25T14:45:27.790Z,40.77
2019-01-25T14:47:56.212Z,41.03
2019-01-25T14:50:30.236Z,37.40
2019-01-25T14:52:58.965Z,39.73
2019-01-25T14:55:27.378Z,39.27
2019-01-25T14:57:55.827Z,35.70
2019-01-25T15:00:24.227Z,35.43
2019-01-25T15:02:52.632Z,41.27
2019-01-25T15:05:24.384Z,39.27
2019-01-25T15:07:58.824Z,38.60
2019-01-25T15:10:27.939Z,36.43
2019-01-25T15:12:56.945Z,35.87
2019-01-25T15:15:25.467Z,42.63
2019-01-25T15:22:50.903Z,43.13
2019-01-25T15:25:22.488Z,40.00
2019-01-25T15:27:52.220Z,41.50
2019-01-25T15:30:23.247Z,39.07
2019-01-25T15:33:07.106Z,41.17
2019-01-25T15:35:35.512Z,40.33
2019-01-25T15:38:03.857Z,46.63
2019-01-25T15:40:32.288Z,47.80
2019-01-25T15:43:00.746Z,46.67
2019-01-25T15:45:29.153Z,51.20
2019-01-25T15:47:57.904Z,50.93
2019-01-25T15:50:31.835Z,55.37
2019-01-25T15:53:00.290Z,55.70
2019-01-25T15:55:29.720Z,53.30
2019-01-25T15:57:58.225Z,59.93
2019-01-25T16:00:28.207Z,56.57
2019-01-25T16:03:05.446Z,52.00
2019-01-25T16:05:33.783Z,52.80
2019-01-25T16:08:02.180Z,59.47
2019-01-25T16:10:30.540Z,60.73
2019-01-25T16:12:59.054Z,64.23
2019-01-25T16:15:28.856Z,61.40
2019-01-25T16:17:57.275Z,56.97
2019-01-25T16:20:27.041Z,61.70
2019-01-25T16:22:56.031Z,63.43
2019-01-25T16:25:29.890Z,59.50
2019-01-25T16:27:58.286Z,58.47
2019-01-25T16:30:29.610Z,66.97
2019-01-25T16:32:57.976Z,60.60
2019-01-25T16:35:26.354Z,63.27
2019-01-25T16:37:54.799Z,67.80
2019-01-25T16:40:28.190Z,67.10
2019-01-25T16:42:56.581Z,68.07
2019-01-25T16:45:30.872Z,76.63
2019-01-25T16:47:59.312Z,70.27
2019-01-25T16:50:27.691Z,71.77
2019-01-25T16:52:56.103Z,77.50
2019-01-25T16:55:24.510Z,79.17
2019-01-25T16:57:52.959Z,67.23
2019-01-25T17:00:28.903Z,71.60
2019-01-25T17:02:58.318Z,68.47
2019-01-25T17:05:26.816Z,71.10
2019-01-25T17:07:55.217Z,66.97
2019-01-25T17:10:25.917Z,73.03
2019-01-25T17:12:54.386Z,73.13
2019-01-25T17:15:22.766Z,53.57
2019-01-25T17:17:51.258Z,69.00
2019-01-25T17:20:24.696Z,75.30
2019-01-25T17:22:53.080Z,66.63
2019-01-25T17:25:21.509Z,69.60
2019-01-25T17:27:49.942Z,63.63
2019-01-25T17:30:23.808Z,69.07
2019-01-25T17:32:54.482Z,59.70
2019-01-25T17:35:25.508Z,70.17
2019-01-25T17:37:54.471Z,80.10
2019-01-25T17:40:28.637Z,77.17
2019-01-25T17:42:57.110Z,69.90
2019-01-25T17:45:25.655Z,77.70
2019-01-25T17:47:54.199Z,72.27
2019-01-25T17:50:22.586Z,70.87
2019-01-25T18:10:54.207Z,29.63
2019-01-25T18:13:22.760Z,33.57
2019-01-25T18:15:51.546Z,28.97
2019-01-25T18:18:19.989Z,38.50
2019-01-25T18:20:48.368Z,28.60
2019-01-25T18:23:16.728Z,48.50
2019-01-25T18:25:52.008Z,33.00
2019-01-25T18:28:23.874Z,39.73
2019-01-25T18:31:02.071Z,40.43
2019-01-25T18:33:30.635Z,45.10
2019-01-25T18:35:59.063Z,41.03
2019-01-25T18:38:27.442Z,45.93
2019-01-25T18:40:55.769Z,51.87
2019-01-25T18:43:24.630Z,41.87
2019-01-25T18:45:52.933Z,43.07
2019-01-25T18:48:21.402Z,51.23
2019-01-25T18:50:51.742Z,46.65
2019-01-25T18:53:20.116Z,40.67
2019-01-25T18:55:48.823Z,42.38
2019-01-25T18:58:17.219Z,41.75
2019-01-25T19:00:45.598Z,49.27
2019-01-25T19:03:29.528Z,37.45
2019-01-25T19:05:57.898Z,41.33
2019-01-25T19:08:26.269Z,44.35
2019-01-25T19:10:54.667Z,38.38
2019-01-25T19:13:23.069Z,41.48
